Terminal Aerodrome Forecast
Issued by NWS

Home | Current Version | Previous Version | Text Only | Print | Product List | Glossary On
Versions: 1 2 3 4 5 6 7 8 9 10 11 12 13 14 15 16 17
567
FTUS46 KLOX 211208 AAA
TAFWJF
TAF AMD
KWJF 211208Z 2112/2212 26014KT P6SM SKC
     FM211600 26009KT P6SM SKC
     FM212000 25012KT P6SM SKC
     FM212200 25018G28KT P6SM SKC
     FM220200 25010KT P6SM SKC
     FM221100 22013KT P6SM SKC=

USA.gov is the U.S. government's official web portal to all federal, state and local government web resources and services.